createdAt,value
2023-02-15T00:00:21.969Z,36.22
2023-02-15T00:01:54.742Z,34.03
2023-02-15T00:03:27.508Z,34.45
2023-02-15T00:04:59.297Z,33.97
2023-02-15T00:06:32.034Z,36.15
2023-02-15T00:08:06.266Z,35.95
2023-02-15T00:09:38.094Z,35.30
2023-02-15T00:11:13.136Z,34.25
2023-02-15T00:12:45.842Z,36.22
2023-02-15T00:14:19.730Z,35.05
2023-02-15T00:15:52.394Z,35.15
2023-02-15T00:17:25.200Z,39.65
2023-02-15T00:18:56.938Z,37.60
2023-02-15T00:20:29.718Z,35.47
2023-02-15T00:22:02.375Z,34.40
2023-02-15T00:23:36.209Z,33.60
2023-02-15T00:25:09.315Z,33.72
2023-02-15T00:26:43.121Z,31.23
2023-02-15T00:28:15.818Z,32.65
2023-02-15T00:29:49.034Z,37.80
2023-02-15T00:31:21.065Z,38.97
2023-02-15T00:32:53.806Z,38.67
2023-02-15T00:34:29.672Z,34.05
2023-02-15T00:36:02.499Z,36.05
2023-02-15T00:37:35.355Z,31.23
2023-02-15T00:39:09.189Z,31.55
2023-02-15T00:40:41.892Z,35.50
2023-02-15T00:42:14.588Z,36.72
2023-02-15T00:43:47.258Z,39.88
2023-02-15T00:45:20.030Z,38.00
2023-02-15T00:46:53.049Z,35.42
2023-02-15T00:48:25.179Z,35.00
2023-02-15T00:49:57.884Z,34.28
2023-02-15T00:51:31.044Z,34.15
2023-02-15T00:53:03.725Z,33.25
2023-02-15T00:54:39.583Z,33.30
2023-02-15T00:56:12.318Z,35.22
2023-02-15T00:57:44.086Z,32.33
2023-02-15T00:59:16.806Z,36.28
2023-02-15T01:00:50.226Z,32.92
2023-02-15T01:02:22.933Z,31.52
2023-02-15T01:03:55.697Z,32.83
2023-02-15T01:05:27.744Z,32.88
2023-02-15T01:07:00.451Z,33.55
2023-02-15T01:08:32.426Z,32.10
2023-02-15T01:10:07.789Z,30.60
2023-02-15T01:11:40.511Z,29.42
2023-02-15T01:13:13.220Z,30.00
2023-02-15T01:14:45.910Z,28.98
2023-02-15T01:16:18.947Z,29.98
2023-02-15T01:17:54.097Z,31.65
2023-02-15T01:19:26.807Z,30.30
2023-02-15T01:20:58.592Z,31.05
2023-02-15T01:22:31.283Z,31.15
2023-02-15T01:24:04.191Z,30.00
2023-02-15T01:25:37.521Z,28.25
2023-02-15T01:27:10.213Z,29.80
2023-02-15T01:28:43.061Z,30.23
2023-02-15T01:30:17.046Z,27.60
2023-02-15T01:31:50.137Z,29.45
2023-02-15T01:33:21.903Z,31.88
2023-02-15T01:34:54.911Z,28.67
2023-02-15T01:36:27.683Z,37.50
2023-02-15T01:37:59.806Z,35.67
2023-02-15T01:39:32.568Z,28.10
2023-02-15T01:41:24.302Z,33.92
2023-02-15T01:42:57.712Z,28.20
2023-02-15T01:44:51.739Z,35.33
2023-02-15T01:46:29.376Z,31.63
2023-02-15T01:48:06.140Z,32.83
2023-02-15T01:49:41.944Z,36.03
2023-02-15T01:51:16.114Z,30.67
2023-02-15T01:52:53.015Z,37.58
2023-02-15T01:54:29.315Z,38.00
2023-02-15T01:56:07.307Z,36.53
2023-02-15T01:57:41.510Z,36.80
2023-02-15T01:59:17.752Z,34.22
2023-02-15T02:00:50.529Z,36.45
2023-02-15T02:02:25.309Z,28.85
2023-02-15T02:04:03.912Z,28.88
2023-02-15T02:05:35.940Z,36.92
2023-02-15T02:07:09.660Z,34.47
2023-02-15T02:08:42.398Z,36.90
2023-02-15T02:10:17.142Z,40.78
2023-02-15T02:11:52.616Z,32.53
2023-02-15T02:13:25.750Z,28.52
2023-02-15T02:14:58.063Z,31.77
2023-02-15T02:16:39.797Z,32.92
2023-02-15T02:18:22.596Z,31.10
2023-02-15T02:20:29.696Z,32.13
2023-02-15T02:22:34.937Z,33.00
2023-02-15T02:24:36.284Z,28.45
2023-02-15T02:26:46.695Z,31.35
2023-02-15T02:28:37.685Z,26.83
2023-02-15T02:30:53.656Z,30.08
2023-02-15T02:33:01.542Z,25.30
2023-02-15T02:34:40.631Z,26.73
2023-02-15T02:36:23.334Z,32.97
2023-02-15T02:38:08.250Z,30.60
2023-02-15T02:39:47.290Z,28.30
2023-02-15T02:41:24.707Z,26.92
2023-02-15T02:43:02.489Z,30.90
2023-02-15T02:44:44.793Z,30.27
2023-02-15T02:46:21.430Z,34.05
2023-02-15T02:48:00.305Z,32.30
2023-02-15T02:49:34.447Z,28.58
2023-02-15T02:51:07.373Z,36.67
2023-02-15T02:52:42.788Z,31.15
2023-02-15T02:54:15.532Z,26.00
2023-02-15T02:55:51.195Z,32.35
2023-02-15T02:57:25.180Z,31.95
2023-02-15T02:59:03.709Z,26.50
2023-02-15T03:00:43.716Z,27.55
2023-02-15T03:02:20.379Z,33.92
2023-02-15T03:03:58.953Z,31.27
2023-02-15T03:05:32.731Z,28.45
2023-02-15T03:07:08.788Z,26.02
2023-02-15T03:08:46.540Z,28.70
2023-02-15T03:10:21.439Z,28.35
2023-02-15T03:11:55.297Z,26.85
2023-02-15T03:13:29.334Z,27.42
2023-02-15T03:15:05.048Z,30.52
2023-02-15T03:16:38.448Z,28.90
2023-02-15T03:18:11.242Z,28.73
2023-02-15T03:19:47.643Z,29.10
2023-02-15T03:21:23.086Z,30.00
2023-02-15T03:23:00.051Z,27.00
2023-02-15T03:24:36.994Z,30.98
2023-02-15T03:26:12.029Z,27.75
2023-02-15T03:27:47.825Z,28.42
2023-02-15T03:29:23.569Z,29.33
2023-02-15T03:31:00.424Z,25.70
2023-02-15T03:32:35.185Z,24.88
2023-02-15T03:34:12.129Z,25.33
2023-02-15T03:35:51.919Z,26.13
2023-02-15T03:37:30.295Z,23.88
2023-02-15T03:39:08.040Z,22.80
2023-02-15T03:41:03.598Z,24.45
2023-02-15T03:42:41.421Z,26.27
2023-02-15T03:44:17.607Z,26.60
2023-02-15T03:45:55.595Z,23.90
2023-02-15T03:47:31.958Z,24.55
2023-02-15T03:49:09.381Z,23.38
2023-02-15T03:51:00.248Z,22.90
2023-02-15T03:52:36.350Z,23.92
2023-02-15T03:54:10.400Z,23.38
2023-02-15T03:55:43.254Z,24.55
2023-02-15T03:57:36.722Z,22.75
2023-02-15T03:59:27.058Z,23.65
2023-02-15T04:01:18.984Z,25.77
2023-02-15T04:03:08.507Z,22.13
2023-02-15T04:04:49.817Z,22.52
2023-02-15T04:06:22.485Z,23.95
2023-02-15T04:07:56.495Z,22.42
2023-02-15T04:09:46.723Z,21.83
2023-02-15T04:11:18.523Z,22.55
2023-02-15T04:12:51.188Z,24.52
2023-02-15T04:14:41.583Z,22.98
2023-02-15T04:16:14.371Z,23.58
2023-02-15T04:17:46.096Z,23.80
2023-02-15T04:19:36.466Z,22.92
2023-02-15T04:21:26.910Z,22.88
2023-02-15T04:23:18.709Z,25.05
2023-02-15T04:25:09.138Z,22.60
2023-02-15T04:26:41.860Z,22.60
2023-02-15T04:28:14.544Z,22.20
2023-02-15T04:29:47.227Z,26.60
2023-02-15T04:31:19.962Z,24.83
2023-02-15T04:32:53.288Z,21.58
2023-02-15T04:34:26.420Z,23.27
2023-02-15T04:35:59.339Z,24.33
2023-02-15T04:37:32.207Z,22.55
2023-02-15T04:39:06.747Z,23.95
2023-02-15T04:40:39.430Z,24.08
2023-02-15T04:42:11.164Z,23.25
2023-02-15T04:43:43.845Z,23.13
2023-02-15T04:45:16.738Z,22.58
2023-02-15T04:46:49.426Z,23.42
2023-02-15T04:48:22.092Z,23.77
2023-02-15T04:49:56.302Z,22.95
2023-02-15T04:51:30.122Z,26.42
2023-02-15T04:53:02.824Z,24.48
2023-02-15T04:54:36.044Z,23.13
2023-02-15T04:56:08.836Z,23.77
2023-02-15T04:57:41.510Z,23.00
2023-02-15T04:59:14.808Z,25.35
2023-02-15T05:00:47.566Z,22.67
2023-02-15T05:02:20.490Z,23.17
2023-02-15T05:03:53.322Z,22.25
2023-02-15T05:05:26.041Z,22.65
2023-02-15T05:06:58.777Z,22.70
2023-02-15T05:08:30.597Z,21.70
2023-02-15T05:10:04.970Z,21.17
2023-02-15T05:11:36.717Z,21.60
2023-02-15T05:13:09.544Z,21.67
2023-02-15T05:14:42.277Z,21.48
2023-02-15T05:16:15.286Z,21.33
2023-02-15T05:17:48.031Z,20.70
2023-02-15T05:19:19.828Z,20.25
2023-02-15T05:20:52.548Z,21.17
2023-02-15T05:22:25.282Z,21.55
2023-02-15T05:23:58.013Z,22.88
2023-02-15T05:25:49.834Z,20.00
2023-02-15T05:27:40.332Z,20.92
2023-02-15T05:29:13.184Z,21.65
2023-02-15T05:30:46.055Z,18.85
2023-02-15T05:32:18.928Z,19.55
2023-02-15T05:33:50.708Z,19.52
2023-02-15T05:35:23.599Z,20.17
2023-02-15T05:36:56.266Z,20.05
2023-02-15T05:38:29.104Z,19.42
2023-02-15T05:40:01.783Z,20.90
2023-02-15T05:41:35.815Z,18.92
2023-02-15T05:43:08.511Z,19.88
2023-02-15T05:44:41.181Z,18.52
2023-02-15T05:46:13.810Z,19.75
2023-02-15T05:47:46.557Z,18.58
2023-02-15T05:49:19.266Z,19.63
2023-02-15T05:51:00.239Z,20.02
2023-02-15T05:52:32.917Z,19.13
2023-02-15T05:54:05.748Z,19.60
2023-02-15T05:55:39.826Z,20.13
2023-02-15T05:57:13.860Z,19.73
2023-02-15T05:58:46.565Z,19.92
2023-02-15T06:00:19.943Z,19.40
2023-02-15T06:01:52.686Z,18.85
2023-02-15T06:03:26.833Z,20.05
2023-02-15T06:04:59.827Z,19.77
2023-02-15T06:06:32.517Z,19.52
2023-02-15T06:08:06.137Z,21.20
2023-02-15T06:09:38.862Z,18.80
2023-02-15T06:11:11.726Z,18.58
2023-02-15T06:12:46.069Z,19.08
2023-02-15T06:14:19.002Z,18.10
2023-02-15T06:15:51.990Z,19.17
2023-02-15T06:17:24.774Z,18.75
2023-02-15T06:18:57.473Z,18.33
2023-02-15T06:20:30.185Z,18.20
2023-02-15T06:22:02.962Z,18.10
2023-02-15T06:23:35.686Z,17.55
2023-02-15T06:25:10.761Z,17.52
2023-02-15T06:26:43.470Z,15.98
2023-02-15T06:28:17.487Z,17.45
2023-02-15T06:29:50.219Z,17.70
2023-02-15T06:31:23.092Z,17.73
2023-02-15T06:32:55.900Z,17.30
2023-02-15T06:34:28.586Z,17.17
2023-02-15T06:36:01.509Z,18.55
2023-02-15T06:37:34.462Z,18.52
2023-02-15T06:39:07.326Z,17.23
2023-02-15T06:40:40.068Z,16.77
2023-02-15T06:42:12.818Z,18.25
2023-02-15T06:43:46.872Z,17.58
2023-02-15T06:45:19.676Z,18.00
2023-02-15T06:46:52.392Z,16.67
2023-02-15T06:48:25.121Z,17.05
2023-02-15T06:49:58.697Z,17.52
2023-02-15T06:51:31.503Z,17.35
2023-02-15T06:53:04.567Z,18.38
2023-02-15T06:54:37.241Z,17.77
2023-02-15T06:56:11.162Z,17.42
2023-02-15T06:57:43.981Z,16.65
2023-02-15T06:59:18.070Z,16.85
2023-02-15T07:00:50.768Z,16.65
2023-02-15T07:02:23.482Z,17.75
2023-02-15T07:03:56.184Z,17.98
2023-02-15T07:05:31.627Z,17.05
2023-02-15T07:07:04.634Z,17.45
2023-02-15T07:08:38.093Z,16.25
2023-02-15T07:10:11.149Z,17.08
2023-02-15T07:12:01.772Z,15.75
2023-02-15T07:13:34.481Z,15.60
2023-02-15T07:15:10.079Z,16.92
2023-02-15T07:16:42.899Z,16.10
2023-02-15T07:18:15.751Z,16.40
2023-02-15T07:19:48.440Z,15.73
2023-02-15T07:21:21.126Z,15.73
2023-02-15T07:22:53.820Z,14.95
2023-02-15T07:24:26.598Z,16.92
2023-02-15T07:25:59.774Z,15.25
2023-02-15T07:27:33.125Z,15.25
2023-02-15T07:29:05.921Z,16.25
2023-02-15T07:30:41.187Z,15.85
2023-02-15T07:32:13.943Z,16.25
2023-02-15T07:33:47.177Z,17.08
2023-02-15T07:35:19.864Z,17.65
2023-02-15T07:36:54.613Z,18.65
2023-02-15T07:38:28.661Z,17.20
2023-02-15T07:40:01.353Z,17.42
2023-02-15T07:41:34.134Z,16.05
2023-02-15T07:43:06.811Z,16.23
2023-02-15T07:44:39.480Z,15.88
2023-02-15T07:46:16.111Z,16.35
2023-02-15T07:47:49.248Z,17.48
2023-02-15T07:49:21.967Z,18.50
2023-02-15T07:50:54.722Z,17.48
2023-02-15T07:52:28.121Z,17.15
2023-02-15T07:54:00.841Z,16.98
2023-02-15T07:55:33.801Z,17.08
2023-02-15T07:57:06.489Z,17.58
2023-02-15T07:58:56.489Z,16.45
2023-02-15T08:00:30.729Z,17.48
2023-02-15T08:02:04.835Z,16.63
2023-02-15T08:03:37.555Z,17.00
2023-02-15T08:05:10.470Z,17.85
2023-02-15T08:06:43.196Z,17.23
2023-02-15T08:08:30.698Z,17.17
2023-02-15T08:10:03.632Z,16.85
2023-02-15T08:11:37.591Z,17.88
2023-02-15T08:13:10.316Z,17.23
2023-02-15T08:14:43.031Z,17.27
2023-02-15T08:16:15.750Z,17.98
2023-02-15T08:17:49.797Z,18.77
2023-02-15T08:19:24.333Z,18.63
2023-02-15T08:20:57.037Z,16.65
2023-02-15T08:22:30.611Z,16.73
2023-02-15T08:24:03.950Z,16.00
2023-02-15T08:25:36.658Z,15.02
2023-02-15T08:27:11.282Z,16.83
2023-02-15T08:28:44.120Z,17.10
2023-02-15T08:30:16.941Z,17.15
2023-02-15T08:31:50.297Z,16.85
2023-02-15T08:33:24.410Z,15.73
2023-02-15T08:34:57.120Z,16.13
2023-02-15T08:36:32.440Z,15.93
2023-02-15T08:38:05.148Z,16.73
2023-02-15T08:39:37.921Z,16.92
2023-02-15T08:41:11.814Z,16.27
2023-02-15T08:42:44.501Z,18.55
2023-02-15T08:44:19.124Z,18.08
2023-02-15T08:45:51.907Z,17.30
2023-02-15T08:47:24.624Z,18.20
2023-02-15T08:48:58.774Z,18.30
2023-02-15T08:50:31.472Z,17.98
2023-02-15T08:52:04.174Z,17.40
2023-02-15T08:53:36.842Z,18.35
2023-02-15T08:55:09.613Z,17.63
2023-02-15T08:56:44.069Z,19.05
2023-02-15T08:58:16.758Z,18.08
2023-02-15T08:59:50.345Z,20.50
2023-02-15T09:01:24.858Z,19.35
2023-02-15T09:02:57.668Z,19.02
2023-02-15T09:04:31.690Z,19.15
2023-02-15T09:06:04.761Z,19.55
2023-02-15T09:07:37.458Z,20.00
2023-02-15T09:09:10.422Z,20.33
2023-02-15T09:10:43.162Z,19.10
2023-02-15T09:12:15.865Z,20.17
2023-02-15T09:13:48.544Z,19.83
2023-02-15T09:15:21.250Z,19.70
2023-02-15T09:16:54.880Z,19.55
2023-02-15T09:18:27.667Z,19.85
2023-02-15T09:20:01.702Z,20.75
2023-02-15T09:21:35.344Z,19.77
2023-02-15T09:23:13.736Z,19.30
2023-02-15T09:24:51.576Z,19.23
2023-02-15T09:26:25.406Z,19.55
2023-02-15T09:27:58.287Z,19.15
2023-02-15T09:29:31.083Z,20.20
2023-02-15T09:31:12.049Z,21.17
2023-02-15T09:32:46.852Z,19.65
2023-02-15T09:34:22.003Z,19.25
2023-02-15T09:35:57.801Z,21.65
2023-02-15T09:37:33.266Z,20.23
2023-02-15T09:39:09.487Z,20.77
2023-02-15T09:40:54.791Z,21.20
2023-02-15T09:42:47.468Z,20.48
2023-02-15T09:44:34.437Z,20.50
2023-02-15T09:46:28.179Z,21.55
2023-02-15T09:48:34.601Z,21.13
2023-02-15T09:50:15.976Z,21.13
2023-02-15T09:52:13.497Z,20.77
2023-02-15T09:54:06.441Z,20.85
2023-02-15T09:55:48.862Z,19.80
2023-02-15T09:57:35.303Z,20.05
2023-02-15T09:59:16.116Z,20.98
2023-02-15T10:01:00.167Z,21.45
2023-02-15T10:02:50.510Z,21.17
2023-02-15T10:04:53.701Z,20.13
2023-02-15T10:06:42.981Z,20.63
2023-02-15T10:08:30.167Z,20.17
2023-02-15T10:10:13.217Z,21.17
2023-02-15T10:12:12.688Z,22.52
2023-02-15T10:13:54.416Z,22.20
2023-02-15T10:15:54.804Z,21.25
2023-02-15T10:17:44.428Z,22.48
2023-02-15T10:19:27.779Z,21.92
2023-02-15T10:21:10.981Z,21.17
2023-02-15T10:22:58.145Z,21.00
2023-02-15T10:24:48.510Z,22.25
2023-02-15T10:26:23.728Z,21.77
2023-02-15T10:27:56.621Z,21.10
2023-02-15T10:29:36.550Z,21.20
2023-02-15T10:31:24.237Z,20.52
2023-02-15T10:33:02.770Z,21.02
2023-02-15T10:34:41.161Z,20.30
2023-02-15T10:36:34.867Z,19.13
2023-02-15T10:38:18.613Z,19.60
2023-02-15T10:40:01.118Z,20.40
2023-02-15T10:41:47.132Z,20.02
2023-02-15T10:43:37.648Z,19.80
2023-02-15T10:45:20.318Z,20.65
2023-02-15T10:47:15.110Z,19.92
2023-02-15T10:49:13.637Z,18.75
2023-02-15T10:50:51.584Z,20.10
2023-02-15T10:52:35.146Z,17.92
2023-02-15T10:54:17.039Z,18.50
2023-02-15T10:55:57.744Z,19.42
2023-02-15T10:57:39.701Z,19.20
2023-02-15T10:59:32.453Z,19.15
2023-02-15T11:01:14.379Z,18.60
2023-02-15T11:03:04.208Z,19.40
2023-02-15T11:04:47.398Z,19.10
2023-02-15T11:06:22.647Z,19.63
2023-02-15T11:08:00.309Z,19.30
2023-02-15T11:09:42.635Z,18.92
2023-02-15T11:11:23.173Z,18.27
2023-02-15T11:12:58.617Z,19.10
2023-02-15T11:14:39.406Z,20.13
2023-02-15T11:16:18.964Z,19.45
2023-02-15T11:17:57.482Z,19.02
2023-02-15T11:19:35.916Z,18.77
2023-02-15T11:21:15.147Z,18.77
2023-02-15T11:22:51.854Z,19.48
2023-02-15T11:24:30.752Z,19.05
2023-02-15T11:26:06.612Z,19.40
2023-02-15T11:27:41.103Z,19.27
2023-02-15T11:29:19.942Z,19.65
2023-02-15T11:30:56.563Z,19.67
2023-02-15T11:32:32.350Z,18.58
2023-02-15T11:34:13.131Z,18.52
2023-02-15T11:35:51.196Z,19.33
2023-02-15T11:37:29.653Z,21.70
2023-02-15T11:39:10.709Z,22.27
2023-02-15T11:40:49.775Z,20.75
2023-02-15T11:42:25.081Z,20.17
2023-02-15T11:44:06.680Z,19.63
2023-02-15T11:45:42.519Z,19.73
2023-02-15T11:47:16.246Z,18.98
2023-02-15T11:48:49.675Z,18.95
2023-02-15T11:50:24.918Z,18.95
2023-02-15T11:51:58.908Z,18.23
2023-02-15T11:53:35.332Z,18.52
2023-02-15T11:55:15.619Z,18.77
2023-02-15T11:56:48.325Z,19.17
2023-02-15T11:58:31.619Z,18.70
2023-02-15T12:00:13.294Z,21.05
2023-02-15T12:01:47.569Z,20.10
2023-02-15T12:03:31.734Z,19.15
2023-02-15T12:05:09.588Z,19.15
2023-02-15T12:06:48.975Z,20.55
2023-02-15T12:08:23.609Z,20.20
2023-02-15T12:10:05.036Z,19.85
2023-02-15T12:11:39.966Z,19.60
2023-02-15T12:13:15.297Z,19.60
2023-02-15T12:14:50.311Z,19.48
2023-02-15T12:16:24.619Z,19.67
2023-02-15T12:17:57.503Z,18.95
2023-02-15T12:19:34.134Z,19.65
2023-02-15T12:21:10.999Z,19.52
2023-02-15T12:22:51.257Z,20.60
2023-02-15T12:24:28.087Z,20.10
2023-02-15T12:26:01.740Z,21.17
2023-02-15T12:27:36.342Z,20.77
2023-02-15T12:29:17.353Z,20.38
2023-02-15T12:30:50.202Z,21.77
2023-02-15T12:32:28.294Z,20.58
2023-02-15T12:34:04.424Z,20.35
2023-02-15T12:35:38.765Z,20.95
2023-02-15T12:37:17.977Z,21.15
2023-02-15T12:39:20.361Z,21.90
2023-02-15T12:41:00.784Z,21.45
2023-02-15T12:42:45.608Z,21.88
2023-02-15T12:44:20.611Z,21.27
2023-02-15T12:45:53.314Z,21.38
2023-02-15T12:47:29.566Z,21.75
2023-02-15T12:49:20.640Z,22.02
2023-02-15T12:50:56.269Z,20.83
2023-02-15T12:52:28.975Z,23.00
2023-02-15T12:54:04.919Z,22.85
2023-02-15T12:55:37.632Z,22.10
2023-02-15T12:57:31.731Z,22.48
2023-02-15T12:59:07.218Z,21.75
2023-02-15T13:00:40.027Z,22.00
2023-02-15T13:02:22.902Z,22.10
2023-02-15T13:04:03.266Z,22.40
2023-02-15T13:05:39.317Z,21.40
2023-02-15T13:07:13.883Z,21.50
2023-02-15T13:08:51.014Z,21.77
2023-02-15T13:10:29.317Z,21.90
2023-02-15T13:12:12.496Z,21.63
2023-02-15T13:13:53.506Z,20.55
2023-02-15T13:15:30.336Z,20.67
2023-02-15T13:17:07.839Z,21.88
2023-02-15T13:18:44.596Z,21.92
2023-02-15T13:20:23.712Z,21.85
2023-02-15T13:21:57.871Z,22.70
2023-02-15T13:23:32.107Z,22.20
2023-02-15T13:25:12.030Z,21.67
2023-02-15T13:26:48.019Z,23.13
2023-02-15T13:28:24.818Z,22.08
2023-02-15T13:30:00.653Z,22.77
2023-02-15T13:31:34.082Z,23.63
2023-02-15T13:33:12.536Z,22.67
2023-02-15T13:34:45.264Z,23.17
2023-02-15T13:36:25.646Z,22.58
2023-02-15T13:38:09.443Z,22.27
2023-02-15T13:39:45.264Z,22.35
2023-02-15T13:41:23.082Z,23.02
2023-02-15T13:43:01.013Z,22.92
2023-02-15T13:44:57.804Z,25.42
2023-02-15T13:46:45.899Z,24.60
2023-02-15T13:48:40.124Z,22.80
2023-02-15T13:50:34.403Z,24.20
2023-02-15T13:52:19.101Z,23.63
2023-02-15T13:54:10.683Z,24.75
2023-02-15T13:55:49.043Z,24.13
2023-02-15T13:57:42.846Z,23.75
2023-02-15T13:59:45.975Z,24.73
2023-02-15T14:01:23.959Z,24.23
2023-02-15T14:03:23.569Z,25.08
2023-02-15T14:05:15.901Z,25.15
2023-02-15T14:07:05.577Z,25.55
2023-02-15T14:08:52.670Z,24.77
2023-02-15T14:10:39.892Z,24.85
2023-02-15T14:12:34.636Z,25.55
2023-02-15T14:14:41.610Z,25.75
2023-02-15T14:16:23.045Z,24.60
2023-02-15T14:18:12.927Z,26.15
2023-02-15T14:19:50.791Z,26.33
2023-02-15T14:21:32.404Z,27.45
2023-02-15T14:23:11.501Z,25.70
2023-02-15T14:24:50.082Z,26.13
2023-02-15T14:26:33.528Z,26.35
2023-02-15T14:28:11.669Z,25.30
2023-02-15T14:29:51.518Z,25.92
2023-02-15T14:31:31.958Z,27.02
2023-02-15T14:33:08.880Z,25.52
2023-02-15T14:34:47.640Z,26.33
2023-02-15T14:36:21.935Z,25.50
2023-02-15T14:38:00.902Z,26.95
2023-02-15T14:40:01.484Z,25.60
2023-02-15T14:41:41.939Z,25.50
2023-02-15T14:43:20.965Z,25.50
2023-02-15T14:45:03.559Z,26.13
2023-02-15T14:46:43.419Z,26.02
2023-02-15T14:48:20.363Z,24.05
2023-02-15T14:49:53.137Z,26.20
2023-02-15T14:52:02.477Z,26.27
2023-02-15T14:53:40.197Z,24.92
2023-02-15T14:55:38.243Z,26.45
2023-02-15T14:57:28.736Z,25.40
2023-02-15T14:59:19.801Z,24.50
2023-02-15T15:00:52.528Z,24.25
2023-02-15T15:02:28.430Z,24.45
2023-02-15T15:04:04.771Z,25.02
2023-02-15T15:05:47.819Z,24.30
2023-02-15T15:07:23.354Z,24.27
2023-02-15T15:09:00.659Z,23.73
2023-02-15T15:10:45.966Z,23.77
2023-02-15T15:12:40.661Z,24.95
2023-02-15T15:14:42.481Z,25.30
2023-02-15T15:16:31.975Z,26.23
2023-02-15T15:18:07.110Z,24.73
2023-02-15T15:20:14.222Z,26.00
2023-02-15T15:21:57.935Z,24.27
2023-02-15T15:23:45.362Z,23.75
2023-02-15T15:25:43.574Z,25.35
2023-02-15T15:27:45.930Z,26.17
2023-02-15T15:29:43.587Z,25.67
2023-02-15T15:31:21.894Z,25.50
2023-02-15T15:33:03.972Z,26.33
2023-02-15T15:35:09.499Z,26.27
2023-02-15T15:37:07.917Z,25.27
2023-02-15T15:38:48.568Z,26.27
2023-02-15T15:40:44.061Z,26.05
2023-02-15T15:42:34.431Z,25.98
2023-02-15T15:44:44.507Z,27.95
2023-02-15T15:46:49.898Z,27.70
2023-02-15T15:48:31.409Z,26.38
2023-02-15T15:50:13.568Z,27.35
2023-02-15T15:51:47.307Z,26.05
2023-02-15T15:53:24.110Z,30.13
2023-02-15T15:55:04.022Z,28.42
2023-02-15T15:56:38.650Z,28.38
2023-02-15T15:58:18.501Z,27.88
2023-02-15T15:59:51.645Z,27.92
2023-02-15T16:01:29.566Z,29.10
2023-02-15T16:03:04.236Z,28.08
2023-02-15T16:04:37.328Z,29.23
2023-02-15T16:06:16.266Z,28.85
2023-02-15T16:07:49.099Z,29.58
2023-02-15T16:09:24.216Z,29.83
2023-02-15T16:10:57.355Z,29.95
2023-02-15T16:12:32.597Z,29.83
2023-02-15T16:14:05.384Z,28.77
2023-02-15T16:15:45.262Z,29.25
2023-02-15T16:17:23.792Z,29.20
2023-02-15T16:19:00.333Z,27.58
2023-02-15T16:20:36.293Z,27.27
2023-02-15T16:22:15.439Z,27.25
2023-02-15T16:24:01.627Z,29.65
2023-02-15T16:25:43.285Z,28.50
2023-02-15T16:27:36.645Z,29.35
2023-02-15T16:29:16.534Z,30.70
2023-02-15T16:31:06.014Z,29.85
2023-02-15T16:32:38.959Z,30.88
2023-02-15T16:34:19.407Z,30.50
2023-02-15T16:35:57.393Z,31.42
2023-02-15T16:37:34.325Z,31.20
2023-02-15T16:39:18.630Z,32.03
2023-02-15T16:40:58.114Z,30.35
2023-02-15T16:42:31.221Z,31.50
2023-02-15T16:44:08.417Z,31.58
2023-02-15T16:45:41.428Z,28.83
2023-02-15T16:47:19.069Z,28.67
2023-02-15T16:48:54.542Z,29.38
2023-02-15T16:50:33.565Z,29.73
2023-02-15T16:52:09.925Z,30.27
2023-02-15T16:53:47.949Z,30.90
2023-02-15T16:55:25.308Z,29.60
2023-02-15T16:56:58.391Z,31.27
2023-02-15T16:58:38.366Z,30.60
2023-02-15T17:00:21.528Z,32.60
2023-02-15T17:01:54.406Z,33.20
2023-02-15T17:03:28.448Z,32.55
2023-02-15T17:05:18.411Z,33.70
2023-02-15T17:07:02.375Z,34.28
2023-02-15T17:08:37.833Z,35.28
2023-02-15T17:10:29.874Z,34.90
2023-02-15T17:12:03.144Z,33.83
2023-02-15T17:13:36.215Z,33.83
2023-02-15T17:15:26.712Z,35.70
2023-02-15T17:17:07.877Z,37.25
2023-02-15T17:18:45.798Z,35.60
2023-02-15T17:20:22.017Z,36.28
2023-02-15T17:21:57.215Z,34.50
2023-02-15T17:23:34.473Z,36.22
2023-02-15T17:25:07.637Z,36.95
2023-02-15T17:26:40.970Z,35.72
2023-02-15T17:28:20.565Z,34.53
2023-02-15T17:29:58.098Z,33.15
2023-02-15T17:31:34.691Z,35.83
2023-02-15T17:33:22.355Z,33.67
2023-02-15T17:35:20.395Z,35.40
2023-02-15T17:37:00.097Z,35.78
2023-02-15T17:38:34.423Z,37.38
2023-02-15T17:40:18.449Z,37.72
2023-02-15T17:41:53.812Z,38.08
2023-02-15T17:43:26.618Z,37.75
2023-02-15T17:44:59.297Z,40.13
2023-02-15T17:46:36.842Z,39.50
2023-02-15T17:48:19.597Z,39.30
2023-02-15T17:49:52.631Z,37.33
2023-02-15T17:51:25.453Z,37.50
2023-02-15T17:52:59.372Z,40.13
2023-02-15T17:54:50.983Z,39.67
2023-02-15T17:56:23.707Z,36.58
2023-02-15T17:57:56.385Z,38.80
2023-02-15T17:59:29.060Z,36.22
2023-02-15T18:01:23.190Z,35.20
2023-02-15T18:03:13.835Z,36.40
2023-02-15T18:05:04.397Z,35.95
2023-02-15T18:06:56.760Z,36.35
2023-02-15T18:08:47.154Z,37.47
2023-02-15T18:10:38.806Z,37.30
2023-02-15T18:12:21.313Z,35.90
2023-02-15T18:13:54.033Z,35.83
2023-02-15T18:15:26.873Z,35.25
2023-02-15T18:16:59.597Z,35.28
2023-02-15T18:18:32.279Z,35.53
2023-02-15T18:20:08.812Z,36.95
2023-02-15T18:21:41.571Z,38.08
2023-02-15T18:23:15.535Z,36.95
2023-02-15T18:24:49.175Z,35.13
2023-02-15T18:26:25.413Z,32.70
2023-02-15T18:27:58.260Z,33.17
2023-02-15T18:29:31.013Z,36.53
2023-02-15T18:31:04.071Z,33.53
2023-02-15T18:32:40.112Z,34.42
2023-02-15T18:34:23.235Z,35.03
2023-02-15T18:35:55.271Z,37.17
2023-02-15T18:37:32.992Z,33.78
2023-02-15T18:39:15.028Z,33.85
2023-02-15T18:40:47.770Z,35.67
2023-02-15T18:42:23.205Z,35.13
2023-02-15T18:43:56.771Z,35.00
2023-02-15T18:45:32.830Z,37.17
2023-02-15T18:47:05.711Z,38.40
2023-02-15T18:48:38.538Z,38.58
2023-02-15T18:50:12.515Z,38.95
2023-02-15T18:51:45.452Z,36.53
2023-02-15T18:53:21.263Z,36.28
2023-02-15T18:54:56.764Z,37.65
2023-02-15T18:56:31.476Z,37.13
2023-02-15T18:58:05.557Z,37.30
2023-02-15T18:59:38.369Z,37.15
2023-02-15T19:01:16.675Z,37.95
2023-02-15T19:02:49.489Z,36.45
2023-02-15T19:04:24.797Z,36.20
2023-02-15T19:05:58.888Z,38.65
2023-02-15T19:07:33.174Z,37.70
2023-02-15T19:09:05.904Z,39.38
2023-02-15T19:10:38.641Z,41.85
2023-02-15T19:12:14.213Z,40.03
2023-02-15T19:13:49.179Z,41.65
2023-02-15T19:15:23.953Z,45.80
2023-02-15T19:16:58.666Z,37.83
2023-02-15T19:18:31.446Z,38.50
2023-02-15T19:20:04.387Z,40.90
2023-02-15T19:21:37.457Z,39.15
2023-02-15T19:23:17.418Z,37.92
2023-02-15T19:24:51.840Z,41.20
2023-02-15T19:26:30.767Z,40.50
2023-02-15T19:28:17.733Z,38.42
2023-02-15T19:29:52.389Z,39.88
2023-02-15T19:31:25.386Z,39.50
2023-02-15T19:32:59.304Z,41.55
2023-02-15T19:34:32.008Z,37.03
2023-02-15T19:36:06.517Z,36.00
2023-02-15T19:37:42.663Z,35.03
2023-02-15T19:39:27.596Z,38.80
2023-02-15T19:41:04.692Z,35.25
2023-02-15T19:42:37.423Z,34.72
2023-02-15T19:44:10.425Z,36.08
2023-02-15T19:45:44.816Z,37.70
2023-02-15T19:47:19.484Z,34.60
2023-02-15T19:48:53.441Z,37.97
2023-02-15T19:50:29.881Z,36.42
2023-02-15T19:52:02.747Z,37.00
2023-02-15T19:53:36.123Z,37.25
2023-02-15T19:55:21.909Z,36.22
2023-02-15T19:56:54.748Z,35.67
2023-02-15T19:58:27.746Z,35.45
2023-02-15T20:00:09.524Z,37.47
2023-02-15T20:01:50.526Z,34.50
2023-02-15T20:03:23.427Z,34.55
2023-02-15T20:04:56.320Z,34.55
2023-02-15T20:06:29.071Z,36.42
2023-02-15T20:08:03.898Z,33.90
2023-02-15T20:09:40.666Z,36.00
2023-02-15T20:11:14.734Z,34.28
2023-02-15T20:12:47.808Z,35.40
2023-02-15T20:14:21.010Z,36.75
2023-02-15T20:15:53.762Z,34.08
2023-02-15T20:17:27.966Z,35.58
2023-02-15T20:19:00.754Z,34.30
2023-02-15T20:20:39.847Z,35.13
2023-02-15T20:22:22.234Z,33.60
2023-02-15T20:23:55.023Z,35.22
2023-02-15T20:25:31.719Z,34.80
2023-02-15T20:27:04.896Z,33.00
2023-02-15T20:28:37.603Z,36.28
2023-02-15T20:30:17.048Z,32.85
2023-02-15T20:31:50.263Z,32.85
2023-02-15T20:33:24.968Z,33.17
2023-02-15T20:34:57.687Z,62.75
2023-02-15T20:36:30.403Z,85.53
2023-02-15T20:38:04.811Z,76.30
2023-02-15T20:39:37.522Z,36.90
2023-02-15T20:41:32.711Z,33.30
2023-02-15T20:43:13.150Z,33.10
2023-02-15T20:44:45.957Z,32.03
2023-02-15T20:46:18.734Z,29.45
2023-02-15T20:47:52.751Z,29.75
2023-02-15T20:49:28.687Z,31.40
2023-02-15T20:51:02.713Z,33.42
2023-02-15T20:52:35.787Z,31.27
2023-02-15T20:54:14.792Z,33.55
2023-02-15T20:55:47.946Z,32.92
2023-02-15T20:57:20.651Z,33.40
2023-02-15T20:58:54.404Z,31.98
2023-02-15T21:00:29.085Z,30.98